Time;durP1;ratioP1;P1;durP2;ratioP2;P2;SDS_P1;SDS_P2;PMS_P1;PMS_P2;Temp;Humidity;BMP_temperature;BMP_pressure;BME280_temperature;BME280_humidity;BME280_pressure;Samples;Min_cycle;Max_cycle;Signal;HPM_P1;HPM_P2
2022/04/23 00:00:39;;;;;;;13.73;12.73;;;11.50;99.90;;;;;;5050363;28;20405;-86
2022/04/23 00:03:05;;;;;;;14.63;13.57;;;11.50;99.90;;;;;;5052006;28;20381;-86
2022/04/23 00:05:30;;;;;;;14.27;13.18;;;11.70;99.90;;;;;;5051689;28;20893;-85
2022/04/23 00:07:57;;;;;;;14.77;13.57;;;11.50;99.90;;;;;;5052219;28;20382;-86
2022/04/23 00:10:23;;;;;;;14.70;13.50;;;11.60;99.90;;;;;;5051881;28;20431;-86
2022/04/23 00:12:50;;;;;;;14.43;13.37;;;11.50;99.90;;;;;;5052107;28;20385;-86
2022/04/23 00:15:15;;;;;;;14.25;13.10;;;11.50;99.90;;;;;;5051733;28;20854;-85
2022/04/23 00:17:43;;;;;;;14.80;13.57;;;11.50;99.90;;;;;;5052061;28;20416;-86
2022/04/23 00:20:11;;;;;;;14.68;13.35;;;11.40;99.90;;;;;;5049972;28;20393;-85
2022/04/23 00:22:37;;;;;;;15.02;13.75;;;11.40;99.90;;;;;;5052067;28;20489;-85
2022/04/23 00:25:03;;;;;;;15.35;14.15;;;11.40;99.90;;;;;;5051826;28;20432;-85
2022/04/23 00:27:29;;;;;;;15.73;14.32;;;11.40;99.90;;;;;;5050205;28;20396;-86
2022/04/23 00:29:55;;;;;;;15.30;14.20;;;11.50;99.90;;;;;;5054999;28;20384;-85
2022/04/23 00:32:20;;;;;;;15.27;14.05;;;11.80;99.90;;;;;;5055548;28;20480;-85
2022/04/23 00:34:46;;;;;;;15.43;14.23;;;11.30;99.90;;;;;;5056267;28;20377;-85
2022/04/23 00:37:11;;;;;;;15.80;14.50;;;11.40;99.90;;;;;;5057081;28;20893;-85
2022/04/23 00:39:37;;;;;;;15.80;14.50;;;11.50;99.90;;;;;;5057064;28;20389;-85
2022/04/23 00:42:08;;;;;;;15.70;14.60;;;11.50;99.90;;;;;;5056085;28;20948;-86
2022/04/23 00:44:35;;;;;;;16.15;14.85;;;11.50;99.90;;;;;;5054969;28;20785;-85
2022/04/23 00:47:02;;;;;;;16.20;14.93;;;11.30;99.90;;;;;;5055005;28;20386;-85
2022/04/23 00:49:27;;;;;;;15.90;14.60;;;11.30;99.90;;;;;;5054064;28;20385;-85
2022/04/23 00:51:53;;;;;;;15.05;13.95;;;11.30;99.90;;;;;;5055300;28;20878;-85
2022/04/23 00:54:19;;;;;;;16.08;14.77;;;11.30;99.90;;;;;;5054958;28;20397;-86
2022/04/23 00:56:46;;;;;;;16.83;15.50;;;11.40;99.90;;;;;;5055077;28;20409;-85
2022/04/23 00:59:12;;;;;;;16.55;15.15;;;11.60;99.90;;;;;;5055024;28;20405;-85
2022/04/23 01:01:40;;;;;;;16.67;15.18;;;11.30;99.90;;;;;;5054403;28;20401;-85
2022/04/23 01:04:09;;;;;;;16.15;14.85;;;11.60;99.90;;;;;;5053739;28;20390;-85
2022/04/23 01:06:36;;;;;;;17.13;15.50;;;11.30;99.90;;;;;;5054660;28;20389;-85
2022/04/23 01:09:09;;;;;;;15.90;14.60;;;11.40;99.90;;;;;;5054375;28;20385;-85
2022/04/23 01:11:38;;;;;;;16.30;14.80;;;11.20;99.90;;;;;;5054506;28;20421;-85
2022/04/23 01:14:05;;;;;;;15.95;14.65;;;11.40;99.90;;;;;;5054839;28;20385;-85
2022/04/23 01:16:31;;;;;;;16.58;15.10;;;11.30;99.90;;;;;;5054382;28;20440;-85
2022/04/23 01:18:57;;;;;;;15.80;14.60;;;11.30;99.90;;;;;;5054744;28;20413;-84
2022/04/23 01:21:23;;;;;;;15.95;14.85;;;11.40;99.90;;;;;;5054365;28;20405;-85
2022/04/23 01:23:53;;;;;;;16.57;15.07;;;11.20;99.90;;;;;;5054353;28;20400;-84
2022/04/23 01:26:31;;;;;;;15.90;14.60;;;11.30;99.90;;;;;;5054596;28;20389;-85
2022/04/23 01:28:57;;;;;;;16.63;15.23;;;11.20;99.90;;;;;;5054296;28;20831;-85
2022/04/23 01:31:24;;;;;;;16.00;14.73;;;11.20;99.90;;;;;;5053892;28;20385;-85
2022/04/23 01:33:50;;;;;;;17.50;16.20;;;11.60;99.90;;;;;;5054277;28;20462;-85
2022/04/23 01:36:16;;;;;;;15.68;14.48;;;10.90;99.90;;;;;;5054270;28;20886;-85
2022/04/23 01:38:43;;;;;;;16.63;15.32;;;10.90;99.90;;;;;;5054022;28;20413;-84
2022/04/23 01:41:09;;;;;;;15.95;14.75;;;11.00;99.90;;;;;;5050915;28;20409;-85
2022/04/23 01:43:34;;;;;;;16.37;15.10;;;11.10;99.90;;;;;;5047180;28;20386;-85
2022/04/23 01:46:00;;;;;;;16.37;14.93;;;11.10;99.90;;;;;;5053861;28;20382;-85
2022/04/23 01:48:25;;;;;;;16.50;15.30;;;11.10;99.90;;;;;;5053983;28;20378;-86
2022/04/23 01:50:53;;;;;;;15.97;14.77;;;11.20;99.90;;;;;;5053015;28;20427;-85
2022/04/23 01:53:19;;;;;;;16.43;15.10;;;11.00;99.90;;;;;;5053840;28;20866;-85
2022/04/23 01:55:45;;;;;;;17.03;15.63;;;10.90;99.90;;;;;;5053836;28;20386;-85
2022/04/23 01:58:10;;;;;;;16.33;15.13;;;10.80;99.90;;;;;;5053665;28;20381;-85
2022/04/23 02:00:36;;;;;;;15.97;14.77;;;10.90;99.90;;;;;;5053451;28;20381;-85
2022/04/23 02:03:02;;;;;;;16.60;15.35;;;11.10;99.90;;;;;;5053758;28;20392;-85
2022/04/23 02:05:28;;;;;;;16.33;14.98;;;11.00;99.90;;;;;;5048208;28;20484;-85
2022/04/23 02:07:54;;;;;;;16.50;15.20;;;11.00;99.90;;;;;;5052572;28;20504;-85
2022/04/23 02:10:19;;;;;;;17.00;15.70;;;11.00;99.90;;;;;;5056193;28;20405;-85
2022/04/23 02:12:46;;;;;;;16.27;15.02;;;11.10;99.90;;;;;;5046602;28;20388;-85
2022/04/23 02:15:13;;;;;;;16.40;15.20;;;11.10;99.90;;;;;;5050093;28;20909;-85
2022/04/23 02:17:41;;;;;;;17.15;15.85;;;11.00;99.90;;;;;;5050544;28;20397;-85
2022/04/23 02:20:09;;;;;;;16.65;15.38;;;10.90;99.90;;;;;;5053487;28;20390;-85
2022/04/23 02:22:35;;;;;;;17.35;16.02;;;10.90;99.90;;;;;;5040676;28;20402;-85
2022/04/23 02:25:01;;;;;;;17.55;16.15;;;10.90;99.90;;;;;;5052364;28;20916;-85
2022/04/23 02:27:27;;;;;;;16.93;15.73;;;11.30;99.90;;;;;;5053233;28;20439;-85
2022/04/23 02:29:54;;;;;;;17.33;15.93;;;10.80;99.90;;;;;;5052999;28;20374;-85
2022/04/23 02:32:20;;;;;;;17.42;16.02;;;10.70;99.90;;;;;;5053076;28;20385;-85
2022/04/23 02:34:46;;;;;;;18.63;16.93;;;11.10;99.90;;;;;;5053047;28;20385;-85
2022/04/23 02:37:12;;;;;;;18.45;16.90;;;10.80;99.90;;;;;;5052991;28;20735;-85
2022/04/23 02:39:39;;;;;;;18.92;17.33;;;10.80;99.90;;;;;;5052506;28;20472;-85
2022/04/23 02:42:05;;;;;;;18.95;17.45;;;10.80;99.90;;;;;;5052877;28;20436;-85
2022/04/23 02:44:31;;;;;;;18.65;17.15;;;10.70;99.90;;;;;;5052746;28;20435;-85
2022/04/23 02:46:57;;;;;;;18.77;17.20;;;10.80;99.90;;;;;;5052690;28;20412;-85
2022/04/23 02:49:23;;;;;;;18.13;16.63;;;10.80;99.90;;;;;;5052794;28;20421;-86
2022/04/23 02:51:50;;;;;;;19.10;17.67;;;10.70;99.90;;;;;;5052391;28;20746;-85
2022/04/23 02:54:15;;;;;;;19.63;18.02;;;10.80;99.90;;;;;;5051278;28;20436;-85
2022/04/23 02:56:41;;;;;;;19.83;18.02;;;10.60;99.90;;;;;;5052617;28;20413;-85
2022/04/23 02:59:06;;;;;;;21.30;19.08;;;10.60;99.90;;;;;;5052768;28;20384;-85
2022/04/23 03:01:36;;;;;;;20.38;18.77;;;10.60;99.90;;;;;;5052253;28;20410;-85
2022/04/23 03:04:01;;;;;;;20.23;18.48;;;10.20;99.90;;;;;;5052676;28;20421;-85
2022/04/23 03:06:29;;;;;;;20.60;18.83;;;10.30;99.90;;;;;;5052424;28;20806;-85
2022/04/23 03:09:02;;;;;;;20.67;19.08;;;10.30;99.90;;;;;;5052654;28;20739;-86
2022/04/23 03:11:31;;;;;;;21.52;19.73;;;10.40;99.90;;;;;;5052285;28;20421;-85
2022/04/23 03:14:02;;;;;;;22.10;20.27;;;10.50;99.90;;;;;;5051670;28;20389;-85
2022/04/23 03:16:28;;;;;;;22.92;20.98;;;10.20;99.90;;;;;;5052572;28;20378;-85
2022/04/23 03:18:54;;;;;;;23.85;21.75;;;10.10;99.90;;;;;;5052392;28;20385;-85
2022/04/23 03:21:20;;;;;;;24.42;22.33;;;10.50;99.90;;;;;;5052308;28;20544;-85
2022/04/23 03:23:45;;;;;;;24.10;22.00;;;9.80;99.90;;;;;;5052278;28;20382;-85
2022/04/23 03:26:11;;;;;;;26.15;23.85;;;10.00;99.90;;;;;;5052545;28;20861;-85
2022/04/23 03:28:37;;;;;;;25.80;23.50;;;9.90;99.90;;;;;;5052312;28;20385;-85
2022/04/23 03:31:02;;;;;;;27.48;25.08;;;9.70;99.90;;;;;;5051973;28;20389;-85
2022/04/23 03:33:28;;;;;;;28.02;25.50;;;9.80;99.90;;;;;;5052006;28;20389;-85
2022/04/23 03:35:54;;;;;;;27.67;25.17;;;9.70;99.90;;;;;;5051952;28;20389;-85
2022/04/23 03:38:20;;;;;;;27.87;25.27;;;10.50;99.90;;;;;;5043571;28;20391;-84
2022/04/23 03:40:48;;;;;;;29.03;26.33;;;9.90;99.90;;;;;;5049830;28;20402;-85
2022/04/23 03:43:15;;;;;;;27.85;25.35;;;9.90;99.90;;;;;;5051878;28;20870;-85
2022/04/23 03:45:40;;;;;;;28.88;26.33;;;9.90;99.90;;;;;;5051717;28;20932;-85
2022/04/23 03:48:06;;;;;;;30.63;27.80;;;9.90;99.90;;;;;;5051145;28;20373;-85
2022/04/23 03:50:33;;;;;;;30.48;27.67;;;9.70;99.90;;;;;;5051593;28;20421;-85
2022/04/23 03:52:58;;;;;;;30.50;27.70;;;9.60;99.90;;;;;;5051332;28;20389;-85
2022/04/23 03:55:27;;;;;;;30.50;27.70;;;9.70;99.90;;;;;;5051383;28;20754;-85
2022/04/23 03:57:54;;;;;;;30.65;27.67;;;9.90;99.90;;;;;;5051711;28;20748;-84
2022/04/23 04:00:21;;;;;;;30.87;27.87;;;9.70;99.90;;;;;;5051765;28;20419;-85
2022/04/23 04:02:47;;;;;;;31.47;28.60;;;9.70;99.90;;;;;;5053138;28;20499;-85
2022/04/23 04:05:14;;;;;;;34.42;31.23;;;9.70;99.90;;;;;;5069139;28;20399;-85
2022/04/23 04:07:47;;;;;;;35.00;31.70;;;9.40;99.90;;;;;;5072609;28;20405;-85
2022/04/23 04:10:16;;;;;;;35.38;31.98;;;9.40;99.90;;;;;;5054271;28;20460;-85
2022/04/23 04:12:42;;;;;;;36.05;32.47;;;9.40;99.90;;;;;;5053689;28;20378;-85
2022/04/23 04:15:09;;;;;;;35.58;32.08;;;9.30;99.90;;;;;;5052539;28;20389;-85
2022/04/23 04:17:36;;;;;;;36.20;32.50;;;9.40;99.90;;;;;;5054897;28;20869;-85
2022/04/23 04:20:10;;;;;;;35.35;31.95;;;10.10;99.90;;;;;;5053554;28;20910;-85
2022/04/23 04:22:36;;;;;;;35.97;32.47;;;9.60;99.90;;;;;;5054216;28;20405;-85
2022/04/23 04:25:03;;;;;;;35.88;32.38;;;9.70;99.90;;;;;;5038455;28;20396;-84
2022/04/23 04:27:29;;;;;;;35.73;32.27;;;9.50;99.90;;;;;;5059110;28;20385;-85
2022/04/23 04:29:55;;;;;;;35.17;31.70;;;9.70;99.90;;;;;;5053920;28;20381;-85
2022/04/23 04:32:20;;;;;;;34.95;31.65;;;9.60;99.90;;;;;;5055042;28;20424;-85
2022/04/23 04:34:46;;;;;;;33.97;30.77;;;9.70;99.90;;;;;;5055446;28;20466;-85
2022/04/23 04:37:13;;;;;;;35.50;32.00;;;9.90;99.90;;;;;;5055217;28;20854;-85
2022/04/23 04:39:42;;;;;;;34.90;31.60;;;10.30;99.90;;;;;;5055386;28;20739;-85
2022/04/23 04:42:10;;;;;;;34.75;31.35;;;9.90;99.90;;;;;;5055623;28;20425;-85
2022/04/23 04:44:36;;;;;;;33.63;30.52;;;9.80;99.90;;;;;;5065245;28;20385;-85
2022/04/23 04:47:03;;;;;;;34.97;31.58;;;9.80;99.90;;;;;;5068661;28;20383;-85
2022/04/23 04:49:29;;;;;;;34.33;31.10;;;9.90;99.90;;;;;;5069192;28;20896;-85
2022/04/23 04:51:55;;;;;;;34.40;31.13;;;10.00;99.90;;;;;;5069774;28;20388;-85
2022/04/23 04:54:24;;;;;;;33.53;30.38;;;10.00;99.90;;;;;;5064272;28;20375;-85
2022/04/23 04:56:51;;;;;;;33.55;30.35;;;10.70;99.90;;;;;;5068439;28;20389;-85
2022/04/23 04:59:17;;;;;;;33.75;30.55;;;10.30;99.90;;;;;;5066000;28;20886;-85
2022/04/23 05:01:43;;;;;;;34.07;30.87;;;10.30;99.90;;;;;;5065001;28;20460;-85
2022/04/23 05:04:09;;;;;;;33.85;30.63;;;10.40;99.90;;;;;;5071282;28;20887;-85
2022/04/23 05:06:35;;;;;;;33.72;30.45;;;10.30;99.90;;;;;;5069449;28;20397;-85
2022/04/23 05:09:01;;;;;;;34.30;30.92;;;10.40;99.90;;;;;;5067867;28;20387;-85
2022/04/23 05:11:26;;;;;;;34.63;31.33;;;10.50;99.90;;;;;;5067479;28;20689;-85
2022/04/23 05:13:52;;;;;;;35.33;31.92;;;10.30;99.90;;;;;;5064699;28;20479;-85
2022/04/23 05:16:18;;;;;;;34.72;31.25;;;10.20;99.90;;;;;;5071254;28;20474;-85
2022/04/23 05:18:44;;;;;;;34.63;31.20;;;10.30;99.90;;;;;;5064444;28;20581;-85
2022/04/23 05:21:11;;;;;;;33.37;30.27;;;10.40;99.90;;;;;;5069577;28;21119;-84
2022/04/23 05:23:36;;;;;;;35.53;32.15;;;10.50;99.90;;;;;;5070348;28;20471;-85
2022/04/23 05:26:03;;;;;;;37.50;33.80;;;10.20;99.90;;;;;;5067724;28;20443;-85
2022/04/23 05:28:32;;;;;;;38.97;35.03;;;10.30;99.90;;;;;;5071323;28;20471;-84
2022/04/23 05:30:59;;;;;;;36.47;32.97;;;9.80;99.90;;;;;;5058131;28;20395;-84
2022/04/23 05:33:24;;;;;;;35.58;32.17;;;9.70;99.90;;;;;;5071323;28;20903;-84
2022/04/23 05:35:50;;;;;;;35.15;31.75;;;10.10;99.90;;;;;;5068182;28;20385;-83
2022/04/23 05:38:22;;;;;;;34.95;31.65;;;10.30;99.90;;;;;;5072349;28;20693;-83
2022/04/23 05:40:48;;;;;;;35.10;31.70;;;10.40;99.90;;;;;;5069632;28;20467;-84
2022/04/23 05:43:14;;;;;;;36.85;33.25;;;10.70;99.90;;;;;;5071234;28;20384;-84
2022/04/23 05:45:40;;;;;;;37.88;34.08;;;10.30;99.90;;;;;;5071110;28;20388;-84
2022/04/23 05:48:06;;;;;;;36.77;33.27;;;10.20;99.90;;;;;;5062589;28;20443;-84
2022/04/23 05:50:32;;;;;;;35.87;32.47;;;10.20;99.90;;;;;;5066104;28;20393;-83
2022/04/23 05:52:57;;;;;;;35.23;31.77;;;10.40;99.90;;;;;;5068961;28;20387;-84
2022/04/23 05:55:23;;;;;;;35.53;32.23;;;10.70;99.90;;;;;;5071017;28;20396;-85
2022/04/23 05:57:49;;;;;;;35.97;32.47;;;11.10;99.90;;;;;;5061219;28;20438;-84
2022/04/23 06:00:15;;;;;;;37.42;33.83;;;10.50;99.90;;;;;;5065222;28;20471;-84
2022/04/23 06:02:41;;;;;;;38.72;34.95;;;10.30;99.90;;;;;;5068116;28;20502;-84
2022/04/23 06:05:07;;;;;;;38.15;34.50;;;10.30;99.90;;;;;;5057790;28;20979;-84
2022/04/23 06:07:33;;;;;;;38.97;35.25;;;10.30;99.90;;;;;;5070556;28;20475;-84
2022/04/23 06:10:00;;;;;;;38.60;34.88;;;10.10;99.90;;;;;;5055734;28;20406;-84
2022/04/23 06:12:25;;;;;;;39.78;35.88;;;10.80;99.90;;;;;;5065417;28;20395;-84
2022/04/23 06:14:51;;;;;;;39.63;35.63;;;10.20;99.90;;;;;;5060411;28;20389;-85
2022/04/23 06:17:26;;;;;;;39.27;35.20;;;10.20;99.90;;;;;;5063680;28;20902;-83
2022/04/23 06:19:52;;;;;;;36.67;33.17;;;10.20;99.90;;;;;;5063312;28;20896;-83
2022/04/23 06:22:19;;;;;;;36.88;33.28;;;10.20;99.90;;;;;;5066617;28;20837;-83
2022/04/23 06:24:45;;;;;;;37.08;33.45;;;10.70;99.90;;;;;;5065907;28;20387;-83
2022/04/23 06:27:10;;;;;;;37.75;34.10;;;10.40;99.90;;;;;;5064057;28;20388;-84
2022/04/23 06:29:36;;;;;;;38.08;34.30;;;10.40;99.90;;;;;;5052628;28;20381;-86
2022/04/23 06:32:03;;;;;;;38.35;34.55;;;10.90;99.90;;;;;;5067556;28;20395;-83
2022/04/23 06:34:28;;;;;;;37.00;33.40;;;10.30;99.90;;;;;;5061993;28;20389;-83
2022/04/23 06:36:54;;;;;;;35.35;31.95;;;10.40;99.90;;;;;;5068354;28;20392;-84
2022/04/23 06:39:20;;;;;;;34.05;30.73;;;10.60;99.90;;;;;;5065291;28;20886;-83
2022/04/23 06:41:45;;;;;;;36.08;32.58;;;10.60;99.90;;;;;;5068828;28;20434;-83
2022/04/23 06:44:11;;;;;;;33.43;30.20;;;10.50;99.90;;;;;;5061441;28;20384;-84
2022/04/23 06:46:36;;;;;;;33.27;30.07;;;10.60;99.90;;;;;;5067512;28;20883;-83
2022/04/23 06:49:05;;;;;;;33.07;29.97;;;10.50;99.90;;;;;;5067285;28;20442;-83
2022/04/23 06:51:31;;;;;;;32.90;29.80;;;10.60;99.90;;;;;;5062249;28;20395;-84
2022/04/23 06:53:57;;;;;;;33.45;30.25;;;10.70;99.90;;;;;;5066970;28;20406;-84
2022/04/23 06:56:23;;;;;;;32.10;29.08;;;10.80;99.90;;;;;;5062082;28;20400;-84
2022/04/23 06:58:48;;;;;;;33.03;29.83;;;10.70;99.90;;;;;;5066177;28;20419;-85
2022/04/23 07:01:15;;;;;;;33.60;30.17;;;10.80;99.90;;;;;;5055953;28;21090;-89
2022/04/23 07:03:41;;;;;;;32.70;29.60;;;10.80;99.90;;;;;;5060308;28;20387;-85
2022/04/23 07:06:06;;;;;;;31.92;29.00;;;11.90;99.90;;;;;;5061058;28;20853;-84
2022/04/23 07:08:32;;;;;;;32.67;29.63;;;10.80;99.90;;;;;;5052465;28;20389;-84
2022/04/23 07:10:58;;;;;;;32.63;29.50;;;10.80;99.90;;;;;;5052382;28;20424;-87
2022/04/23 07:13:25;;;;;;;31.00;28.10;;;10.80;99.90;;;;;;5051823;28;20385;-87
2022/04/23 07:15:50;;;;;;;30.95;28.15;;;10.80;99.90;;;;;;5051889;28;20381;-87
2022/04/23 07:18:16;;;;;;;31.27;28.37;;;10.90;99.90;;;;;;5052565;28;20392;-86
2022/04/23 07:20:42;;;;;;;31.23;28.37;;;11.10;99.90;;;;;;5052085;28;20868;-86
2022/04/23 07:25:52;;;;;;;30.98;27.88;;;10.90;99.90;;;;;;5052133;28;21056;-87
2022/04/23 07:28:20;;;;;;;30.27;27.27;;;11.70;99.90;;;;;;5052239;28;20471;-89
2022/04/23 07:30:46;;;;;;;30.30;27.40;;;11.00;99.90;;;;;;5039541;28;20435;-88
2022/04/23 07:37:28;;;;;;;29.23;26.52;;;11.00;99.90;;;;;;5052055;28;20385;-86
2022/04/23 07:38:41;;;;;;;31.45;28.42;;;11.40;99.90;;;;;;5068422;28;20764;-89
2022/04/23 07:41:08;;;;;;;30.87;28.03;;;11.30;99.90;;;;;;5051505;28;20410;-87
2022/04/23 07:43:34;;;;;;;30.42;27.40;;;10.90;99.90;;;;;;5051063;28;20385;-88
2022/04/23 07:45:59;;;;;;;29.07;26.33;;;11.00;99.90;;;;;;5045789;28;20755;-87
2022/04/23 07:48:25;;;;;;;28.53;25.83;;;10.90;99.90;;;;;;5064490;28;20726;-86
2022/04/23 07:50:51;;;;;;;29.37;26.47;;;10.90;99.90;;;;;;5056831;28;20908;-87
2022/04/23 07:53:16;;;;;;;28.88;26.08;;;10.90;99.90;;;;;;5062528;28;20393;-86
2022/04/23 07:55:42;;;;;;;28.90;26.10;;;11.00;99.90;;;;;;5055818;28;20388;-87
2022/04/23 07:58:11;;;;;;;28.88;26.05;;;10.90;99.90;;;;;;5066297;28;20394;-86
2022/04/23 08:00:38;;;;;;;29.02;26.30;;;10.90;99.90;;;;;;5068253;28;20383;-87
2022/04/23 08:03:05;;;;;;;30.38;27.40;;;11.00;99.90;;;;;;5033179;28;20775;-87
2022/04/23 08:05:34;;;;;;;31.15;27.95;;;10.70;99.90;;;;;;5051515;28;20413;-88
2022/04/23 08:08:00;;;;;;;30.37;27.33;;;10.70;99.90;;;;;;5068463;28;20785;-87
2022/04/23 08:10:26;;;;;;;30.48;27.35;;;10.70;99.90;;;;;;5052022;28;20453;-87
2022/04/23 08:12:54;;;;;;;29.85;26.95;;;10.80;99.90;;;;;;5052275;28;20400;-88
2022/04/23 08:15:20;;;;;;;29.88;26.75;;;11.10;99.90;;;;;;5051596;28;20391;-88
2022/04/23 08:17:47;;;;;;;29.95;26.75;;;10.60;99.90;;;;;;5052337;28;20401;-85
2022/04/23 08:20:13;;;;;;;30.45;27.40;;;10.80;99.90;;;;;;5049212;28;20408;-86
2022/04/23 08:22:38;;;;;;;30.42;27.23;;;10.90;99.90;;;;;;5045875;28;20455;-86
2022/04/23 08:25:05;;;;;;;30.60;27.40;;;10.80;99.90;;;;;;5051534;28;20385;-86
2022/04/23 08:27:30;;;;;;;30.20;27.20;;;10.80;99.90;;;;;;5051314;28;20385;-85
2022/04/23 08:32:40;;;;;;;28.33;25.35;;;11.00;99.90;;;;;;5051800;28;20435;-85
2022/04/23 08:35:06;;;;;;;27.73;24.77;;;10.90;99.90;;;;;;5051607;28;20386;-85
2022/04/23 08:37:34;;;;;;;27.63;24.90;;;10.80;99.90;;;;;;5051588;28;20397;-85
2022/04/23 08:40:00;;;;;;;27.30;24.45;;;10.90;99.90;;;;;;5051514;28;20386;-85
2022/04/23 08:42:26;;;;;;;28.02;25.05;;;11.20;99.90;;;;;;5051473;28;20412;-85
2022/04/23 08:44:55;;;;;;;29.57;26.30;;;11.00;99.90;;;;;;5051466;28;20381;-85
2022/04/23 08:47:26;;;;;;;28.00;25.10;;;11.10;99.90;;;;;;5051186;28;20870;-85
2022/04/23 08:49:56;;;;;;;28.52;25.63;;;11.60;99.90;;;;;;5051967;28;20909;-86
2022/04/23 08:52:32;;;;;;;28.13;25.20;;;11.10;99.90;;;;;;5055280;28;20716;-85
2022/04/23 08:55:08;;;;;;;30.35;26.20;;;11.10;99.90;;;;;;5054907;28;20374;-85
2022/04/23 08:57:35;;;;;;;28.92;25.92;;;11.10;99.90;;;;;;5055319;28;20385;-85
2022/04/23 09:00:03;;;;;;;27.65;24.85;;;11.20;99.90;;;;;;5054762;28;20382;-85
2022/04/23 09:02:32;;;;;;;29.92;26.33;;;11.20;99.90;;;;;;5054734;28;20397;-85
2022/04/23 09:04:57;;;;;;;29.27;26.08;;;11.40;99.90;;;;;;5054461;28;20471;-85
2022/04/23 09:07:25;;;;;;;29.38;25.95;;;11.00;99.90;;;;;;5054774;28;20437;-85
2022/04/23 09:09:54;;;;;;;28.95;25.85;;;11.00;99.90;;;;;;5054738;28;20390;-85
2022/04/23 09:12:24;;;;;;;29.35;26.25;;;11.00;99.90;;;;;;5054498;28;20862;-84
2022/04/23 09:14:51;;;;;;;28.42;25.38;;;11.00;99.90;;;;;;5054600;28;20373;-87
2022/04/23 09:25:44;;;;;;;30.40;26.25;;;10.70;99.90;;;;;;5056029;28;20401;-85
2022/04/23 09:28:17;;;;;;;29.08;25.88;;;10.70;99.90;;;;;;5068373;28;20470;-85
2022/04/23 09:30:43;;;;;;;31.88;27.63;;;10.80;99.90;;;;;;5066955;28;20414;-85
2022/04/23 09:33:09;;;;;;;30.03;26.13;;;10.80;99.90;;;;;;5064690;28;20431;-84
2022/04/23 09:35:35;;;;;;;30.33;27.13;;;10.90;99.90;;;;;;5069090;28;20900;-85
2022/04/23 09:38:18;;;;;;;31.17;27.07;;;10.80;99.90;;;;;;5061167;28;20384;-84
2022/04/23 09:40:55;;;;;;;30.45;27.15;;;10.70;99.90;;;;;;5067582;28;20403;-85
2022/04/23 09:43:29;;;;;;;29.80;26.67;;;10.70;99.90;;;;;;5068064;28;20783;-85
2022/04/23 09:46:01;;;;;;;31.17;26.85;;;11.10;99.90;;;;;;5069155;28;20458;-85
2022/04/23 09:48:26;;;;;;;31.23;28.02;;;10.70;99.90;;;;;;5071965;28;20427;-85
2022/04/23 09:50:52;;;;;;;29.08;25.23;;;10.70;99.90;;;;;;5053400;28;20372;-85
2022/04/23 09:53:19;;;;;;;29.08;26.05;;;11.00;99.90;;;;;;5066575;28;20404;-85
2022/04/23 09:55:47;;;;;;;27.48;24.70;;;11.00;99.90;;;;;;5069406;28;20387;-85
2022/04/23 09:58:14;;;;;;;27.00;24.33;;;11.20;99.90;;;;;;5068991;28;20454;-84
2022/04/23 10:00:41;;;;;;;27.20;24.50;;;11.30;99.90;;;;;;5038321;28;20992;-85
2022/04/23 10:03:08;;;;;;;27.00;24.30;;;11.30;99.90;;;;;;5070282;28;20464;-84
2022/04/23 10:05:39;;;;;;;28.38;24.48;;;11.70;99.90;;;;;;5070425;28;20395;-85
2022/04/23 10:08:11;;;;;;;27.70;24.90;;;11.60;99.90;;;;;;5068748;28;20389;-85
2022/04/23 10:10:46;;;;;;;32.40;25.02;;;11.40;99.90;;;;;;5067509;28;20417;-85
2022/04/23 10:13:13;;;;;;;29.08;26.08;;;11.70;99.90;;;;;;5069355;28;20411;-85
2022/04/23 10:15:45;;;;;;;27.25;24.50;;;11.60;99.90;;;;;;5071268;28;20391;-85
2022/04/23 10:18:12;;;;;;;28.70;25.65;;;12.60;99.90;;;;;;5054242;28;20468;-85
2022/04/23 10:20:40;;;;;;;28.67;25.67;;;11.70;99.90;;;;;;5053350;28;20389;-85
2022/04/23 10:23:46;;;;;;;29.10;26.10;;;12.10;99.90;;;;;;5053266;28;20455;-85
2022/04/23 10:26:41;;;;;;;28.30;25.38;;;11.70;99.90;;;;;;5022267;28;20401;-83
2022/04/23 10:29:09;;;;;;;27.33;24.55;;;11.70;99.90;;;;;;5051541;28;20432;-88
2022/04/23 10:31:35;;;;;;;28.80;25.80;;;12.10;99.90;;;;;;5049894;28;20392;-88
2022/04/23 10:34:01;;;;;;;29.98;26.88;;;11.70;99.90;;;;;;5053144;28;20378;-88
2022/04/23 10:36:27;;;;;;;28.40;25.60;;;11.70;99.90;;;;;;5053012;28;20408;-87
2022/04/23 10:39:20;;;;;;;29.27;26.38;;;11.60;99.90;;;;;;5053217;28;20409;-87
2022/04/23 10:41:46;;;;;;;28.23;25.33;;;11.60;99.90;;;;;;5052955;28;20414;-88
2022/04/23 10:44:12;;;;;;;28.30;25.45;;;11.70;99.90;;;;;;5056594;28;20411;-89
2022/04/23 10:46:38;;;;;;;28.13;25.33;;;11.60;99.90;;;;;;5056164;28;20391;-88
2022/04/23 10:49:30;;;;;;;28.75;25.65;;;11.60;99.90;;;;;;5069711;28;20534;-88
2022/04/23 10:51:57;;;;;;;28.05;25.35;;;11.70;99.90;;;;;;5064481;28;20403;-88
2022/04/23 10:54:40;;;;;;;28.67;25.88;;;11.90;99.90;;;;;;5063709;28;20391;-88
2022/04/23 10:57:10;;;;;;;28.00;25.20;;;12.40;99.90;;;;;;5062746;28;20419;-88
2022/04/23 10:59:45;;;;;;;30.42;27.45;;;12.20;99.90;;;;;;5058912;28;20385;-88
2022/04/23 11:02:20;;;;;;;33.47;29.95;;;11.80;99.90;;;;;;5067890;28;20434;-88
2022/04/23 11:13:29;;;;;;;25.98;23.48;;;12.10;99.90;;;;;;5066346;28;20780;-89
2022/04/23 11:16:07;;;;;;;26.15;23.55;;;12.10;99.90;;;;;;5068222;28;20464;-91
2022/04/23 11:18:34;;;;;;;27.53;24.53;;;12.20;99.90;;;;;;5065998;28;20467;-88
2022/04/23 11:21:28;;;;;;;26.17;23.40;;;12.10;99.90;;;;;;5066072;28;20467;-87
2022/04/23 11:23:56;;;;;;;26.23;23.52;;;12.10;99.90;;;;;;5067565;28;20469;-89
2022/04/23 11:26:38;;;;;;;25.88;23.38;;;12.20;99.90;;;;;;5060226;28;20412;-89
2022/04/23 11:29:04;;;;;;;26.67;24.08;;;12.30;99.90;;;;;;5069842;28;20388;-87
2022/04/23 11:31:30;;;;;;;27.50;24.75;;;12.20;99.90;;;;;;5073398;28;20441;-87
2022/04/23 11:34:00;;;;;;;26.48;23.77;;;12.20;99.90;;;;;;5071312;28;20390;-89
2022/04/23 11:36:26;;;;;;;26.50;23.70;;;12.20;99.90;;;;;;5065521;28;20418;-89
2022/04/23 11:38:53;;;;;;;26.33;23.70;;;12.40;99.90;;;;;;5069038;28;20938;-89
2022/04/23 11:41:27;;;;;;;27.27;24.58;;;12.30;99.90;;;;;;5064315;28;20410;-89
2022/04/23 11:43:53;;;;;;;28.30;25.45;;;12.40;99.90;;;;;;5066441;28;20381;-89
2022/04/23 11:46:19;;;;;;;27.58;24.85;;;12.20;99.90;;;;;;5069171;28;20394;-88
2022/04/23 11:48:47;;;;;;;27.35;24.42;;;12.30;99.90;;;;;;5066020;28;20459;-88
2022/04/23 11:51:18;;;;;;;26.75;24.00;;;12.40;99.90;;;;;;5063896;28;20397;-88
2022/04/23 11:54:00;;;;;;;27.90;25.10;;;12.60;99.90;;;;;;5063719;28;20394;-87
2022/04/23 11:56:34;;;;;;;27.70;24.80;;;12.60;99.90;;;;;;5060614;28;20405;-87
2022/04/23 11:59:05;;;;;;;26.85;24.23;;;12.50;99.90;;;;;;5063408;28;20386;-88
2022/04/23 12:01:31;;;;;;;28.10;25.30;;;12.60;99.90;;;;;;5064242;28;20412;-87
2022/04/23 12:03:58;;;;;;;27.52;24.85;;;12.50;99.90;;;;;;5065458;28;20868;-87
2022/04/23 12:06:25;;;;;;;27.23;24.45;;;12.60;99.90;;;;;;5067813;28;20401;-87
2022/04/23 12:08:51;;;;;;;27.85;25.15;;;12.60;99.90;;;;;;5058508;28;20460;-85
2022/04/23 12:11:26;;;;;;;27.90;25.10;;;12.70;99.90;;;;;;5050646;28;20392;-85
2022/04/23 12:13:53;;;;;;;26.35;23.75;;;13.10;99.90;;;;;;5053225;28;20396;-86
2022/04/23 12:16:41;;;;;;;27.55;24.85;;;12.80;99.90;;;;;;5051992;28;20925;-88
2022/04/23 12:19:12;;;;;;;27.10;24.60;;;12.80;99.90;;;;;;5052381;28;20442;-86
2022/04/23 12:21:39;;;;;;;27.52;24.92;;;12.80;99.90;;;;;;5051905;28;20492;-86
2022/04/23 12:24:07;;;;;;;28.55;25.65;;;12.50;99.90;;;;;;5052247;28;20903;-88
2022/04/23 12:26:37;;;;;;;28.48;25.55;;;12.50;99.90;;;;;;5056133;28;20396;-87
2022/04/23 12:43:21;;;;;;;27.40;24.57;;;12.90;99.90;;;;;;5051343;28;20455;-86
2022/04/23 12:45:48;;;;;;;26.17;23.50;;;13.00;99.90;;;;;;5052033;28;20428;-87
2022/04/23 12:48:14;;;;;;;26.98;24.30;;;13.20;99.90;;;;;;5055169;28;20389;-86
2022/04/23 12:50:41;;;;;;;25.88;23.45;;;13.20;99.90;;;;;;5062521;28;20410;-87
2022/04/23 12:53:07;;;;;;;26.33;23.73;;;13.20;99.90;;;;;;5055198;28;20516;-87
2022/04/23 12:55:36;;;;;;;25.07;22.67;;;13.40;99.90;;;;;;5055145;28;20468;-88
2022/04/23 12:58:08;;;;;;;24.70;22.30;;;13.40;99.90;;;;;;5055044;28;20441;-87
2022/04/23 13:00:41;;;;;;;25.07;22.67;;;13.60;99.90;;;;;;5055080;28;20968;-86
2022/04/23 13:03:32;;;;;;;26.00;23.40;;;13.60;99.90;;;;;;5054718;28;20458;-87
2022/04/23 13:05:58;;;;;;;26.17;23.58;;;13.50;99.90;;;;;;5054785;28;20393;-88
2022/04/23 13:14:04;;;;;;;24.65;22.23;;;13.60;99.90;;;;;;5052741;28;20373;-88
2022/04/23 13:16:39;;;;;;;24.77;22.55;;;13.80;99.90;;;;;;5051284;28;20385;-86